Time;durP1;ratioP1;P1;durP2;ratioP2;P2;SDS_P1;SDS_P2;PMS_P1;PMS_P2;Temp;Humidity;BMP_temperature;BMP_pressure;BME280_temperature;BME280_humidity;BME280_pressure;Samples;Min_cycle;Max_cycle;Signal;HPM_P1;HPM_P2
2021/11/01 00:01:04;;;;;;;7.35;6.30;;;12.40;99.90;;;;;;5026062;28;20022;-76
2021/11/01 00:03:30;;;;;;;10.88;6.80;;;12.40;1.00;;;;;;5027363;28;20025;-77
2021/11/01 00:08:22;;;;;;;10.48;6.38;;;12.40;1.00;;;;;;5058410;23;20133;-74
2021/11/01 00:10:47;;;;;;;7.78;6.55;;;12.40;99.90;;;;;;5032257;28;20057;-73
2021/11/01 00:13:13;;;;;;;8.18;6.70;;;12.30;1.00;;;;;;5039059;28;20021;-74
2021/11/01 00:15:39;;;;;;;11.75;6.60;;;12.30;1.00;;;;;;5037686;28;20024;-74
2021/11/01 00:18:05;;;;;;;7.22;6.50;;;12.30;1.00;;;;;;5034542;28;20021;-74
2021/11/01 00:20:30;;;;;;;7.07;6.38;;;12.30;1.00;;;;;;5032264;28;20041;-74
2021/11/01 00:22:56;;;;;;;6.78;5.90;;;12.30;1.00;;;;;;5016269;28;20040;-73
2021/11/01 00:25:22;;;;;;;11.10;7.70;;;12.30;1.00;;;;;;5023779;28;20022;-73
2021/11/01 00:27:49;;;;;;;9.23;7.43;;;12.30;1.00;;;;;;5021509;28;20037;-73
2021/11/01 00:30:15;;;;;;;8.05;7.10;;;12.40;1.00;;;;;;5018262;28;20096;-72
2021/11/01 00:32:42;;;;;;;8.35;6.55;;;12.40;99.90;;;;;;5025989;28;20497;-74
2021/11/01 00:35:07;;;;;;;9.70;6.43;;;12.40;99.90;;;;;;5023380;28;20382;-74
2021/11/01 00:37:33;;;;;;;8.05;6.25;;;12.60;99.90;;;;;;5022657;28;20033;-77
2021/11/01 00:40:00;;;;;;;7.05;6.10;;;12.50;1.00;;;;;;5012513;28;20026;-73
2021/11/01 00:42:27;;;;;;;6.72;6.07;;;12.70;1.00;;;;;;5008321;28;20485;-74
2021/11/01 00:44:53;;;;;;;7.20;5.30;;;12.70;1.00;;;;;;5031563;28;20029;-72
2021/11/01 00:47:18;;;;;;;6.03;5.43;;;13.00;1.00;;;;;;5025078;28;20030;-73
2021/11/01 00:49:44;;;;;;;7.13;6.28;;;13.10;99.90;;;;;;5030126;28;20021;-72
2021/11/01 00:52:10;;;;;;;6.53;5.72;;;13.10;99.90;;;;;;5036731;28;20029;-73
2021/11/01 00:54:36;;;;;;;6.38;5.60;;;12.90;99.90;;;;;;5028647;28;20021;-73
2021/11/01 00:57:03;;;;;;;7.43;5.22;;;12.90;99.90;;;;;;5006550;28;20152;-74
2021/11/01 00:59:29;;;;;;;5.93;5.18;;;13.00;99.90;;;;;;5016352;28;20053;-72
2021/11/01 01:01:55;;;;;;;4.70;4.22;;;13.10;99.90;;;;;;5017798;28;20621;-73
2021/11/01 01:04:24;;;;;;;4.93;3.75;;;13.20;99.90;;;;;;5012760;28;20121;-72
2021/11/01 01:06:50;;;;;;;4.40;3.05;;;13.30;99.90;;;;;;5015454;28;20120;-74
2021/11/01 01:09:15;;;;;;;4.60;2.40;;;13.70;99.90;;;;;;5010494;28;20068;-74
2021/11/01 01:11:41;;;;;;;1.52;1.17;;;13.70;99.90;;;;;;5012388;28;20041;-74
2021/11/01 01:14:07;;;;;;;1.17;0.90;;;14.20;99.90;;;;;;4994305;28;20378;-72
2021/11/01 01:16:39;;;;;;;2.00;0.90;;;14.50;99.90;;;;;;5012269;28;20021;-73
2021/11/01 01:19:06;;;;;;;1.67;1.20;;;14.70;99.90;;;;;;5011788;28;20041;-74
2021/11/01 01:24:16;;;;;;;0.88;0.43;;;15.30;99.90;;;;;;5015676;28;20061;-74
2021/11/01 01:26:42;;;;;;;1.00;0.50;;;15.50;99.90;;;;;;5016186;28;20018;-74
2021/11/01 01:29:11;;;;;;;0.50;0.50;;;15.60;99.90;;;;;;4996798;28;20030;-72
2021/11/01 01:31:39;;;;;;;0.75;0.60;;;15.70;99.90;;;;;;4994082;28;20072;-73
2021/11/01 01:34:05;;;;;;;0.95;0.73;;;15.80;99.90;;;;;;5018161;28;20057;-72
2021/11/01 01:36:31;;;;;;;0.70;0.70;;;15.80;99.90;;;;;;5039545;28;20037;-73
2021/11/01 01:38:56;;;;;;;1.02;0.50;;;15.80;99.90;;;;;;5042447;28;20033;-74
2021/11/01 01:41:27;;;;;;;0.82;0.50;;;15.80;99.90;;;;;;5038710;28;20029;-73
2021/11/01 01:43:57;;;;;;;1.17;0.50;;;15.70;99.90;;;;;;5025316;28;20021;-73
2021/11/01 01:46:24;;;;;;;0.60;0.60;;;15.90;99.90;;;;;;5017759;28;20038;-74
2021/11/01 01:48:53;;;;;;;2.33;1.60;;;15.80;99.90;;;;;;5010851;28;20030;-73
2021/11/01 01:51:20;;;;;;;0.93;0.93;;;15.70;99.90;;;;;;5001199;28;20026;-73
2021/11/01 01:53:46;;;;;;;1.20;1.10;;;15.50;99.90;;;;;;5026682;28;20063;-73
2021/11/01 01:56:12;;;;;;;2.08;1.30;;;15.30;99.90;;;;;;5019587;28;20083;-74
2021/11/01 01:58:45;;;;;;;1.77;1.33;;;15.00;99.90;;;;;;5021925;28;20091;-74
2021/11/01 02:01:14;;;;;;;1.35;1.15;;;14.80;99.90;;;;;;5011249;28;20033;-73
2021/11/01 02:03:45;;;;;;;1.23;0.73;;;14.70;99.90;;;;;;5030048;28;20026;-74
2021/11/01 02:06:15;;;;;;;;;;;14.50;99.90;;;;;;5024108;28;20021;-74
2021/11/01 02:08:59;;;;;;;3.60;0.75;;;14.40;99.90;;;;;;5019461;28;20430;-74
2021/11/01 02:11:34;;;;;;;3.63;0.80;;;14.20;99.90;;;;;;5024920;28;20159;-73
2021/11/01 02:14:01;;;;;;;1.73;0.65;;;14.00;99.90;;;;;;5016644;28;20029;-74
2021/11/01 02:16:32;;;;;;;1.83;0.50;;;14.00;99.90;;;;;;5030283;28;20477;-73
2021/11/01 02:19:02;;;;;;;1.85;0.88;;;13.90;99.90;;;;;;5027817;28;20040;-73
2021/11/01 02:21:42;;;;;;;1.70;0.45;;;13.80;99.90;;;;;;5017075;28;20026;-74
2021/11/01 02:24:24;;;;;;;0.77;0.40;;;13.60;99.90;;;;;;5027129;28;20033;-75
2021/11/01 02:26:50;;;;;;;1.52;0.60;;;13.50;99.90;;;;;;5018707;28;20148;-74
2021/11/01 02:29:17;;;;;;;2.78;0.70;;;13.50;99.90;;;;;;5023917;28;20022;-74
2021/11/01 02:31:43;;;;;;;2.03;0.40;;;13.40;99.90;;;;;;5018695;28;20025;-73
2021/11/01 02:34:09;;;;;;;3.83;1.23;;;13.40;99.90;;;;;;5014755;28;20041;-72
2021/11/01 02:36:35;;;;;;;1.42;0.40;;;13.30;99.90;;;;;;5026256;28;20037;-73
2021/11/01 02:39:02;;;;;;;4.00;1.35;;;13.10;99.90;;;;;;5011975;28;20030;-73
2021/11/01 02:41:32;;;;;;;2.00;0.80;;;13.00;99.90;;;;;;5017374;28;20025;-73
2021/11/01 02:44:02;;;;;;;5.20;1.00;;;12.90;99.90;;;;;;5027043;28;20034;-73
2021/11/01 02:46:27;;;;;;;2.33;0.57;;;12.80;99.90;;;;;;4997439;28;20041;-73
2021/11/01 02:48:54;;;;;;;2.13;0.50;;;12.70;99.90;;;;;;5013101;28;20478;-73
2021/11/01 02:51:21;;;;;;;3.55;0.70;;;12.70;99.90;;;;;;5013081;28;20037;-73
2021/11/01 02:53:51;;;;;;;2.25;0.98;;;12.70;99.90;;;;;;5020113;28;20266;-73
2021/11/01 02:56:17;;;;;;;1.83;0.50;;;12.60;99.90;;;;;;5025431;28;20118;-73
2021/11/01 02:58:44;;;;;;;3.65;1.52;;;12.60;99.90;;;;;;5014350;28;20429;-73
2021/11/01 03:01:13;;;;;;;4.03;0.80;;;12.50;99.90;;;;;;5007979;28;20053;-73
2021/11/01 03:03:39;;;;;;;2.13;0.52;;;12.50;99.90;;;;;;5015061;28;20121;-73
2021/11/01 03:06:06;;;;;;;3.83;1.25;;;12.50;99.90;;;;;;5002811;28;20152;-73
2021/11/01 03:08:33;;;;;;;2.33;0.65;;;12.40;99.90;;;;;;5014130;28;20109;-73
2021/11/01 03:11:01;;;;;;;1.80;0.40;;;12.30;99.90;;;;;;5024358;28;20109;-73
2021/11/01 03:13:30;;;;;;;3.90;0.50;;;12.30;99.90;;;;;;5016297;28;20478;-73
2021/11/01 03:15:57;;;;;;;1.40;0.47;;;12.30;99.90;;;;;;5017806;28;20104;-73
2021/11/01 03:18:33;;;;;;;2.80;0.85;;;12.30;99.90;;;;;;5014669;28;20144;-73
2021/11/01 03:21:00;;;;;;;3.20;0.63;;;12.20;99.90;;;;;;5013592;28;20044;-73
2021/11/01 03:23:30;;;;;;;3.90;0.80;;;12.20;99.90;;;;;;5023455;28;20034;-73
2021/11/01 03:26:11;;;;;;;2.50;0.45;;;12.10;99.90;;;;;;5019932;28;20105;-72
2021/11/01 03:28:37;;;;;;;1.05;0.50;;;12.00;99.90;;;;;;5017349;28;20026;-72
2021/11/01 03:31:05;;;;;;;3.15;0.80;;;12.00;99.90;;;;;;5019371;28;20075;-73
2021/11/01 03:33:38;;;;;;;0.55;0.40;;;11.90;99.90;;;;;;5021822;28;20113;-73
2021/11/01 03:36:05;;;;;;;4.90;0.50;;;11.80;99.90;;;;;;5020460;28;20021;-73
2021/11/01 03:38:32;;;;;;;3.75;0.70;;;11.70;99.90;;;;;;5016334;28;20105;-73
2021/11/01 03:40:58;;;;;;;3.45;0.98;;;11.70;99.90;;;;;;5019266;28;20029;-73
2021/11/01 03:43:29;;;;;;;2.47;0.55;;;11.60;99.90;;;;;;5013863;28;20230;-72
2021/11/01 03:45:57;;;;;;;3.30;0.50;;;11.70;99.90;;;;;;5040400;28;20021;-71
2021/11/01 03:48:24;;;;;;;2.28;0.70;;;11.50;99.90;;;;;;5027888;28;20026;-72
2021/11/01 03:51:01;;;;;;;2.67;0.55;;;11.50;99.90;;;;;;5013626;28;20056;-73
2021/11/01 03:53:26;;;;;;;2.85;0.50;;;11.40;99.90;;;;;;5013330;28;20037;-72
2021/11/01 03:55:52;;;;;;;4.93;0.47;;;11.40;99.90;;;;;;5020456;28;20026;-72
2021/11/01 03:58:18;;;;;;;5.85;0.80;;;11.30;99.90;;;;;;5015814;28;20018;-72
2021/11/01 04:00:44;;;;;;;2.63;0.77;;;11.30;99.90;;;;;;5013576;28;20034;-73
2021/11/01 04:03:10;;;;;;;3.75;0.65;;;11.30;99.90;;;;;;5015417;28;20545;-72
2021/11/01 04:05:35;;;;;;;3.15;1.15;;;11.40;99.90;;;;;;5026269;28;20030;-72
2021/11/01 04:08:01;;;;;;;2.67;0.70;;;11.30;99.90;;;;;;5015925;28;20410;-72
2021/11/01 04:10:27;;;;;;;3.40;0.50;;;11.30;99.90;;;;;;5020264;28;20025;-73
2021/11/01 04:12:53;;;;;;;3.78;0.90;;;11.30;99.90;;;;;;5014253;28;20318;-72
2021/11/01 04:15:21;;;;;;;3.38;0.68;;;11.20;99.90;;;;;;5020215;28;20046;-72
2021/11/01 04:18:02;;;;;;;2.63;0.60;;;11.20;99.90;;;;;;5027262;28;20059;-73
2021/11/01 04:23:06;;;;;;;3.13;0.57;;;11.20;99.90;;;;;;5022208;28;20113;-75
2021/11/01 04:25:32;;;;;;;2.55;0.77;;;11.20;99.90;;;;;;5024056;28;20440;-73
2021/11/01 04:27:59;;;;;;;2.67;0.80;;;11.20;99.90;;;;;;5014632;28;20050;-73
2021/11/01 04:30:28;;;;;;;3.33;0.47;;;11.20;99.90;;;;;;5022607;28;20018;-73
2021/11/01 04:32:57;;;;;;;2.70;0.65;;;11.10;99.90;;;;;;5024364;28;20044;-73
2021/11/01 04:35:26;;;;;;;2.47;0.68;;;11.10;99.90;;;;;;5003861;28;20029;-73
2021/11/01 04:38:01;;;;;;;4.38;0.50;;;11.10;99.90;;;;;;5031230;28;20041;-72
2021/11/01 04:40:53;;;;;;;3.33;0.85;;;11.10;99.90;;;;;;5030620;28;20026;-73
2021/11/01 04:54:12;;;;;;;2.83;0.55;;;11.20;99.90;;;;;;5054947;28;20045;-71
2021/11/01 04:56:38;;;;;;;3.42;1.80;;;11.20;99.90;;;;;;5032899;28;20018;-74
2021/11/01 04:59:07;;;;;;;3.22;0.70;;;11.10;99.90;;;;;;5025527;28;20440;-73
2021/11/01 05:01:39;;;;;;;3.75;0.90;;;11.10;99.90;;;;;;5024008;28;20037;-73
2021/11/01 05:04:07;;;;;;;6.53;1.77;;;11.10;99.90;;;;;;5013721;28;20091;-72
2021/11/01 05:06:36;;;;;;;3.65;0.73;;;11.00;99.90;;;;;;5023049;28;20041;-74
2021/11/01 05:09:07;;;;;;;3.15;0.60;;;11.00;99.90;;;;;;4988994;28;20059;-74
2021/11/01 05:11:40;;;;;;;4.43;1.38;;;11.00;99.90;;;;;;5012329;28;20512;-73
2021/11/01 05:14:06;;;;;;;7.15;0.85;;;11.00;99.90;;;;;;5018736;28;20117;-73
2021/11/01 05:16:44;;;;;;;4.20;1.20;;;11.00;99.90;;;;;;5022866;28;20113;-73
2021/11/01 05:19:20;;;;;;;4.78;0.95;;;11.00;99.90;;;;;;5023980;28;20021;-73
2021/11/01 05:21:57;;;;;;;2.83;0.65;;;11.00;99.90;;;;;;5012166;28;20018;-73
2021/11/01 05:24:39;;;;;;;3.72;0.90;;;11.00;99.90;;;;;;5006678;28;20074;-72
2021/11/01 05:29:33;;;;;;;4.10;0.88;;;10.90;99.90;;;;;;5021115;28;20074;-72
2021/11/01 05:32:14;;;;;;;4.95;1.80;;;10.90;99.90;;;;;;5019027;28;20485;-73
2021/11/01 05:34:39;;;;;;;3.53;1.30;;;10.90;99.90;;;;;;5018887;28;20022;-73
2021/11/01 05:37:06;;;;;;;3.88;1.13;;;10.90;99.90;;;;;;5021086;28;20512;-73
2021/11/01 05:39:32;;;;;;;6.35;1.02;;;10.90;99.90;;;;;;5005994;28;20022;-73
2021/11/01 05:41:58;;;;;;;5.22;1.40;;;10.90;99.90;;;;;;5000167;28;20461;-73
2021/11/01 05:44:23;;;;;;;3.80;1.05;;;10.90;99.90;;;;;;5017723;28;20033;-74
2021/11/01 05:46:51;;;;;;;3.30;0.93;;;10.90;99.90;;;;;;5016468;28;20061;-73
2021/11/01 05:49:19;;;;;;;2.97;0.70;;;10.90;99.90;;;;;;5021438;28;20501;-73
2021/11/01 05:51:44;;;;;;;2.78;0.90;;;10.90;99.90;;;;;;5028228;28;20112;-73
2021/11/01 05:54:14;;;;;;;3.97;0.85;;;10.90;99.90;;;;;;5018969;28;20104;-73
2021/11/01 05:59:38;;;;;;;3.15;1.00;;;10.90;99.90;;;;;;5013025;28;20033;-72
2021/11/01 06:10:03;;;;;;;5.70;1.27;;;10.90;99.90;;;;;;5056572;28;20037;-77
2021/11/01 06:15:14;;;;;;;4.35;0.90;;;10.90;99.90;;;;;;5056217;28;20087;-77
2021/11/01 06:17:40;;;;;;;3.97;1.13;;;10.90;99.90;;;;;;5052225;28;20017;-77
2021/11/01 06:20:07;;;;;;;1.27;0.77;;;10.90;99.90;;;;;;5042020;28;20052;-76
2021/11/01 06:22:32;;;;;;;0.98;0.50;;;10.90;99.90;;;;;;5046363;28;20038;-75
2021/11/01 06:25:03;;;;;;;4.45;1.10;;;10.80;99.90;;;;;;5036830;28;20033;-75
2021/11/01 06:27:28;;;;;;;4.90;0.85;;;10.90;99.90;;;;;;5054302;28;20028;-75
2021/11/01 06:40:41;;;;;;;3.28;1.50;;;11.00;99.90;;;;;;5051766;28;20012;-76
2021/11/01 06:43:20;;;;;;;4.32;2.00;;;11.00;99.90;;;;;;5046877;28;20034;-76
2021/11/01 06:51:22;;;;;;;5.05;1.45;;;10.90;99.90;;;;;;5053066;28;20041;-75
2021/11/01 07:14:07;;;;;;;2.85;0.65;;;10.80;99.90;;;;;;5036900;28;20021;-77
2021/11/01 07:15:49;;;;;;;4.00;0.70;;;10.90;99.90;;;;;;5048016;28;20044;-77
2021/11/01 07:18:25;;;;;;;0.98;0.40;;;10.90;99.90;;;;;;5032598;28;20125;-76
2021/11/01 07:21:05;;;;;;;1.63;0.57;;;10.90;99.90;;;;;;5017603;28;20501;-75
2021/11/01 08:21:04;;;;;;;2.22;0.68;;;10.70;99.90;;;;;;5034077;28;20022;-79
2021/11/01 08:23:45;;;;;;;2.30;0.80;;;10.70;99.90;;;;;;5032070;28;20010;-78
2021/11/01 08:29:24;;;;;;;1.42;0.65;;;10.60;99.90;;;;;;4995953;28;20048;-79
2021/11/01 08:40:09;;;;;;;1.45;0.70;;;10.70;99.90;;;;;;5031508;28;20583;-77
2021/11/01 08:43:05;;;;;;;1.52;0.60;;;10.70;99.90;;;;;;5036070;28;20045;-77
2021/11/01 08:48:16;;;;;;;2.20;0.70;;;10.70;99.90;;;;;;5038065;28;20037;-78
2021/11/01 09:12:51;;;;;;;1.20;0.80;;;11.00;99.90;;;;;;5040490;28;20460;-73
2021/11/01 09:25:50;;;;;;;1.10;0.68;;;11.10;99.90;;;;;;5042010;28;20026;-75
2021/11/01 09:28:26;;;;;;;1.83;0.68;;;11.20;99.90;;;;;;5033247;28;20026;-78
2021/11/01 09:36:31;;;;;;;2.15;0.70;;;11.30;99.90;;;;;;5038502;28;20041;-76
2021/11/01 09:39:20;;;;;;;0.77;0.52;;;11.30;99.90;;;;;;5034594;28;20053;-76
2021/11/01 09:41:46;;;;;;;3.45;0.60;;;11.30;99.90;;;;;;5037967;28;20611;-75
2021/11/01 09:44:14;;;;;;;1.45;0.50;;;11.30;99.90;;;;;;5038825;28;20050;-77
2021/11/01 09:46:40;;;;;;;0.80;0.63;;;11.30;99.90;;;;;;5038288;28;20029;-75
2021/11/01 09:49:15;;;;;;;1.80;0.90;;;11.40;99.90;;;;;;5033698;28;20084;-75
2021/11/01 09:51:54;;;;;;;0.95;0.63;;;11.40;99.90;;;;;;5009959;28;20029;-75
2021/11/01 09:54:25;;;;;;;0.73;0.50;;;11.50;99.90;;;;;;5019729;28;20034;-77
2021/11/01 09:57:05;;;;;;;1.75;0.85;;;11.50;99.90;;;;;;5002181;28;20053;-76
2021/11/01 09:59:35;;;;;;;1.17;0.73;;;11.40;99.90;;;;;;5017398;28;20022;-76
2021/11/01 10:02:02;;;;;;;3.92;1.13;;;11.50;99.90;;;;;;4998603;28;20022;-78
2021/11/01 10:04:33;;;;;;;1.63;0.85;;;11.50;99.90;;;;;;5016537;28;20429;-76
2021/11/01 10:07:19;;;;;;;1.40;0.65;;;11.60;99.90;;;;;;5003915;28;20044;-76
2021/11/01 10:09:52;;;;;;;2.90;0.98;;;11.60;99.90;;;;;;5021092;28;20470;-74
2021/11/01 10:12:45;;;;;;;0.77;0.60;;;11.60;99.90;;;;;;5018646;28;20030;-76
2021/11/01 10:18:05;;;;;;;1.27;0.60;;;11.50;99.90;;;;;;5018673;28;20117;-77
2021/11/01 10:20:32;;;;;;;0.85;0.60;;;11.40;99.90;;;;;;5017802;28;20030;-76
2021/11/01 10:22:59;;;;;;;3.17;0.60;;;11.70;99.90;;;;;;5017330;28;20073;-76
2021/11/01 10:25:26;;;;;;;1.27;0.70;;;11.60;99.90;;;;;;5017196;28;20030;-74
2021/11/01 10:27:57;;;;;;;1.00;0.50;;;11.70;99.90;;;;;;5026020;28;20029;-76
2021/11/01 10:30:28;;;;;;;1.58;0.80;;;11.60;99.90;;;;;;5014851;28;20065;-76
2021/11/01 10:32:56;;;;;;;0.82;0.57;;;11.60;99.90;;;;;;4994413;28;20030;-76
2021/11/01 10:35:34;;;;;;;1.80;0.80;;;11.60;99.90;;;;;;5015638;28;20437;-75
2021/11/01 11:11:33;;;;;;;1.15;0.80;;;11.90;99.90;;;;;;5012628;28;20091;-78
2021/11/01 11:19:34;;;;;;;0.60;0.50;;;11.80;99.90;;;;;;5015569;28;20390;-71
2021/11/01 11:22:22;;;;;;;1.75;0.60;;;11.90;99.90;;;;;;5014651;28;20030;-73
2021/11/01 11:49:35;;;;;;;1.77;0.88;;;12.50;99.90;;;;;;5029163;28;20029;-72
2021/11/01 11:52:09;;;;;;;1.08;0.80;;;12.40;99.90;;;;;;5029443;28;20026;-71
2021/11/01 11:54:45;;;;;;;0.95;0.82;;;12.30;99.90;;;;;;5038715;28;20025;-72
2021/11/01 11:57:20;;;;;;;1.70;1.05;;;12.20;99.90;;;;;;4992896;28;20029;-71
2021/11/01 11:59:50;;;;;;;1.88;0.88;;;12.10;99.90;;;;;;5001710;28;20019;-74
2021/11/01 12:02:39;;;;;;;1.13;0.90;;;12.10;99.90;;;;;;5009804;28;20030;-74
2021/11/01 12:05:21;;;;;;;1.10;0.63;;;12.00;99.90;;;;;;5011401;28;20506;-71
2021/11/01 12:08:15;;;;;;;1.40;0.90;;;12.00;99.90;;;;;;4991562;28;20405;-72
2021/11/01 12:19:01;;;;;;;2.10;0.90;;;11.90;99.90;;;;;;5011942;28;20049;-72
2021/11/01 12:21:27;;;;;;;1.55;1.20;;;11.90;99.90;;;;;;5030757;28;20085;-71
2021/11/01 12:23:54;;;;;;;0.85;0.82;;;11.90;99.90;;;;;;5009148;28;20053;-71
2021/11/01 12:26:22;;;;;;;3.45;0.75;;;12.00;99.90;;;;;;4998697;28;20117;-71
2021/11/01 12:28:59;;;;;;;1.23;0.70;;;11.90;99.90;;;;;;5018418;28;20032;-71
2021/11/01 12:31:27;;;;;;;0.93;0.70;;;12.00;99.90;;;;;;5000827;28;20030;-72
2021/11/01 12:34:00;;;;;;;1.95;0.93;;;12.00;99.90;;;;;;5009395;28;20022;-71
2021/11/01 12:40:06;;;;;;;2.60;0.77;;;12.00;99.90;;;;;;5019087;28;20040;-72
2021/11/01 12:42:27;;;;;;;3.33;2.45;;;11.90;99.90;;;;;;5015577;28;20104;-70
2021/11/01 12:45:39;;;;;;;2.65;2.22;;;11.90;99.90;;;;;;4993254;28;20027;-71
2021/11/01 12:58:59;;;;;;;1.30;0.90;;;11.90;99.90;;;;;;5008435;28;20123;-71
2021/11/01 13:01:29;;;;;;;1.33;0.90;;;11.90;99.90;;;;;;4978450;28;20030;-71
2021/11/01 13:04:29;;;;;;;1.33;0.93;;;12.00;99.90;;;;;;4996059;28;20128;-71
2021/11/01 13:09:29;;;;;;;1.00;0.80;;;12.00;99.90;;;;;;4996489;28;19917;-74
2021/11/01 13:12:29;;;;;;;2.78;0.80;;;12.00;99.90;;;;;;4995462;28;20033;-73
2021/11/01 13:18:07;;;;;;;2.85;1.50;;;12.10;99.90;;;;;;5001938;28;20057;-76
2021/11/01 13:20:36;;;;;;;1.83;0.90;;;12.10;99.90;;;;;;5011646;28;20106;-77
2021/11/01 13:23:02;;;;;;;4.55;1.48;;;12.00;99.90;;;;;;5004527;28;20034;-77
2021/11/01 13:28:46;;;;;;;2.08;1.02;;;11.90;99.90;;;;;;4992731;28;20034;-76
2021/11/01 13:37:19;;;;;;;4.00;1.00;;;12.00;99.90;;;;;;4992564;28;20112;-77
2021/11/01 13:39:46;;;;;;;2.47;1.13;;;12.00;99.90;;;;;;5004953;28;20003;-75
2021/11/01 13:42:14;;;;;;;1.33;0.80;;;12.10;99.90;;;;;;5012415;28;20015;-78
2021/11/01 13:44:40;;;;;;;1.30;0.90;;;12.00;99.90;;;;;;5020742;28;20098;-78
2021/11/01 13:47:07;;;;;;;2.08;1.10;;;12.00;99.90;;;;;;5016644;28;20058;-78
2021/11/01 13:49:35;;;;;;;2.10;1.55;;;12.10;99.90;;;;;;5009536;28;20105;-79
2021/11/01 13:52:40;;;;;;;1.42;1.23;;;12.00;99.90;;;;;;5006243;28;20054;-79
2021/11/01 13:55:23;;;;;;;4.55;1.60;;;12.00;99.90;;;;;;4994990;28;20038;-76
2021/11/01 13:57:53;;;;;;;1.83;0.93;;;12.00;99.90;;;;;;4980783;28;20061;-75
2021/11/01 14:00:33;;;;;;;1.42;1.10;;;12.00;99.90;;;;;;4995553;28;20029;-74
2021/11/01 14:10:58;;;;;;;1.33;1.02;;;12.10;99.90;;;;;;4996929;28;20121;-73
2021/11/01 14:11:25;;;;;;;3.15;1.20;;;12.10;99.90;;;;;;4989181;28;20095;-74
2021/11/01 14:16:43;;;;;;;3.28;1.20;;;12.20;99.90;;;;;;4994199;28;20033;-73
2021/11/01 15:18:48;;;;;;;3.15;1.60;;;12.10;99.90;;;;;;4988223;28;20473;-73
2021/11/01 15:26:56;;;;;;;2.95;1.50;;;12.20;99.90;;;;;;4962974;28;20169;-73
2021/11/01 15:35:07;;;;;;;3.30;1.08;;;12.20;99.90;;;;;;4995170;28;20022;-75
2021/11/01 16:16:23;;;;;;;7.28;1.70;;;11.70;99.90;;;;;;4994006;28;20037;-74
2021/11/01 16:18:49;;;;;;;8.07;4.70;;;11.60;99.90;;;;;;4975259;28;20023;-74
2021/11/01 16:21:17;;;;;;;2.50;2.15;;;11.60;99.90;;;;;;4977905;28;20033;-75
2021/11/01 16:23:43;;;;;;;2.42;1.48;;;11.60;99.90;;;;;;5005276;28;20030;-73
2021/11/01 16:26:17;;;;;;;3.10;1.55;;;11.50;99.90;;;;;;5004226;28;20510;-75
2021/11/01 16:28:43;;;;;;;2.70;1.73;;;11.50;99.90;;;;;;5004753;28;20030;-73
2021/11/01 16:31:29;;;;;;;2.85;1.77;;;11.50;99.90;;;;;;5004712;28;20031;-74
2021/11/01 16:34:00;;;;;;;2.97;1.80;;;11.60;99.90;;;;;;5004816;28;20054;-73
2021/11/01 16:39:16;;;;;;;4.65;2.30;;;11.50;99.90;;;;;;5000523;28;20053;-74
2021/11/01 16:41:45;;;;;;;4.70;1.60;;;11.40;99.90;;;;;;5006001;28;20057;-75
2021/11/01 16:46:43;;;;;;;5.85;1.75;;;11.40;99.90;;;;;;5004800;28;20033;-74
2021/11/01 16:49:10;;;;;;;2.40;1.30;;;11.50;99.90;;;;;;5007126;28;20041;-75
2021/11/01 16:51:38;;;;;;;3.63;1.67;;;11.50;99.90;;;;;;4986653;28;20041;-75
2021/11/01 16:54:05;;;;;;;3.22;2.00;;;11.40;99.90;;;;;;5000997;28;20088;-74
2021/11/01 17:02:08;;;;;;;2.67;1.85;;;11.40;99.90;;;;;;5001800;28;20037;-74
2021/11/01 17:04:37;;;;;;;2.75;1.92;;;11.40;99.90;;;;;;5008928;28;20061;-75
2021/11/01 17:07:14;;;;;;;3.47;2.08;;;11.40;99.90;;;;;;5016257;28;20022;-76
2021/11/01 17:10:18;;;;;;;5.07;1.67;;;11.30;99.90;;;;;;5015420;28;20030;-77
2021/11/01 17:35:00;;;;;;;2.47;2.23;;;11.20;99.90;;;;;;5008840;28;20116;-73
2021/11/01 18:36:33;;;;;;;6.65;3.50;;;10.20;99.90;;;;;;5016604;28;20040;-72
2021/11/01 18:41:09;;;;;;;5.10;3.58;;;10.10;99.90;;;;;;5018144;28;20486;-72
2021/11/01 18:43:48;;;;;;;6.65;3.17;;;10.10;99.90;;;;;;5022203;28;20041;-73
2021/11/01 18:51:55;;;;;;;3.42;2.70;;;10.20;99.90;;;;;;5013389;28;20092;-72
2021/11/01 18:54:27;;;;;;;4.82;2.55;;;10.20;99.90;;;;;;5028337;28;20045;-73
2021/11/01 18:56:57;;;;;;;4.60;3.00;;;10.20;99.90;;;;;;5005150;28;20022;-75
2021/11/01 18:59:24;;;;;;;5.75;2.50;;;10.20;99.90;;;;;;4999436;28;20068;-73
2021/11/01 19:01:59;;;;;;;2.85;2.03;;;10.20;99.90;;;;;;5019328;28;20482;-75
2021/11/01 19:04:31;;;;;;;3.40;2.30;;;10.20;99.90;;;;;;5021289;28;20032;-73
2021/11/01 19:07:19;;;;;;;4.88;2.30;;;10.20;99.90;;;;;;5018075;28;20109;-72
2021/11/01 20:03:08;;;;;;;1.83;1.70;;;9.10;99.90;;;;;;5023482;28;20088;-72
2021/11/01 20:05:57;;;;;;;2.03;1.83;;;9.10;99.90;;;;;;5020410;28;20039;-70
2021/11/01 20:12:14;;;;;;;4.57;2.00;;;9.00;99.90;;;;;;4974248;28;20049;-71
2021/11/01 20:14:32;;;;;;;3.13;1.90;;;9.00;99.90;;;;;;5010985;28;20128;-75
2021/11/01 21:26:48;;;;;;;2.72;0.95;;;8.50;99.90;;;;;;5022326;28;20068;-76
2021/11/01 21:29:14;;;;;;;3.22;1.40;;;8.40;99.90;;;;;;5006485;28;20030;-76
2021/11/01 21:31:39;;;;;;;3.70;1.55;;;8.30;99.90;;;;;;5011885;28;20057;-73
2021/11/01 21:34:07;;;;;;;2.58;1.27;;;8.30;99.90;;;;;;5028124;28;20087;-74
2021/11/01 21:36:34;;;;;;;2.13;1.25;;;8.20;99.90;;;;;;5002201;28;20026;-75
2021/11/01 21:39:00;;;;;;;1.65;1.27;;;8.30;99.90;;;;;;5019238;28;20021;-75
2021/11/01 21:41:26;;;;;;;1.95;1.30;;;8.30;99.90;;;;;;5017259;28;20026;-75
2021/11/01 21:43:53;;;;;;;5.20;1.50;;;8.30;99.90;;;;;;5023852;28;20079;-75
2021/11/01 21:46:18;;;;;;;1.83;1.30;;;8.30;99.90;;;;;;5022587;28;20029;-75
2021/11/01 21:48:44;;;;;;;2.78;1.58;;;8.30;99.90;;;;;;5028529;28;20030;-75
2021/11/01 21:51:13;;;;;;;3.13;1.70;;;8.30;99.90;;;;;;5038759;28;20045;-75
2021/11/01 21:53:39;;;;;;;1.38;1.20;;;8.30;99.90;;;;;;5028872;28;20074;-76
2021/11/01 21:56:08;;;;;;;2.30;1.40;;;8.40;99.90;;;;;;5011130;28;20029;-75
2021/11/01 21:58:52;;;;;;;3.20;1.40;;;8.40;99.90;;;;;;5005468;28;20137;-75
2021/11/01 22:01:30;;;;;;;1.98;1.77;;;8.50;99.90;;;;;;5000288;28;20117;-75
2021/11/01 22:09:57;;;;;;;1.80;1.23;;;8.30;99.90;;;;;;5020866;28;20033;-75
2021/11/01 22:10:34;;;;;;;2.90;1.33;;;8.20;99.90;;;;;;5018407;28;20036;-74
2021/11/01 22:18:13;;;;;;;2.40;1.70;;;8.00;99.90;;;;;;5013115;28;19916;-76
2021/11/01 22:20:44;;;;;;;3.97;1.45;;;7.90;99.90;;;;;;5020196;28;20272;-75
2021/11/01 22:26:02;;;;;;;1.88;1.52;;;7.80;99.90;;;;;;5012190;28;20102;-74
2021/11/01 22:34:11;;;;;;;2.47;1.83;;;7.70;99.90;;;;;;5019190;28;20053;-80
2021/11/01 22:39:31;;;;;;;3.92;1.90;;;7.60;99.90;;;;;;5017241;28;20024;-76
2021/11/01 22:42:09;;;;;;;2.70;1.77;;;7.70;99.90;;;;;;5013922;28;20037;-75
2021/11/01 22:57:59;;;;;;;3.45;2.05;;;7.70;99.90;;;;;;5035311;28;20032;-77
2021/11/01 23:00:51;;;;;;;2.25;1.88;;;7.70;99.90;;;;;;5041645;28;20089;-78
2021/11/01 23:03:29;;;;;;;4.13;1.80;;;7.80;99.90;;;;;;5006472;28;20485;-78
2021/11/01 23:06:10;;;;;;;3.85;1.70;;;7.90;99.90;;;;;;5024617;28;20417;-78
2021/11/01 23:33:21;;;;;;;2.42;1.30;;;8.60;99.90;;;;;;5023018;28;20109;-77
2021/11/01 23:35:48;;;;;;;3.42;1.10;;;8.60;99.90;;;;;;5015449;28;20103;-75
2021/11/01 23:38:14;;;;;;;3.13;0.95;;;8.70;99.90;;;;;;5015641;28;20028;-77
2021/11/01 23:40:41;;;;;;;2.22;1.20;;;8.70;99.90;;;;;;5017203;28;20041;-75
2021/11/01 23:43:07;;;;;;;2.22;1.23;;;8.70;99.90;;;;;;5017267;28;20030;-75
2021/11/01 23:45:38;;;;;;;4.38;1.80;;;8.70;99.90;;;;;;5039104;22;20026;-72
2021/11/01 23:48:03;;;;;;;5.35;4.25;;;8.70;99.90;;;;;;5009473;28;20023;-73
2021/11/01 23:50:33;;;;;;;4.43;2.75;;;8.80;99.90;;;;;;4998003;28;20048;-74
2021/11/01 23:53:06;;;;;;;6.95;2.22;;;8.90;99.90;;;;;;4995787;28;20034;-74
2021/11/01 23:55:32;;;;;;;3.13;1.70;;;9.00;99.90;;;;;;4994227;28;20033;-73
2021/11/01 23:57:58;;;;;;;6.00;3.90;;;9.00;99.90;;;;;;4993184;28;20157;-73
